Time;durP1;ratioP1;P1;durP2;ratioP2;P2;SDS_P1;SDS_P2;PMS_P1;PMS_P2;Temp;Humidity;BMP_temperature;BMP_pressure;BME280_temperature;BME280_humidity;BME280_pressure;Samples;Min_cycle;Max_cycle;Signal;HPM_P1;HPM_P2
2023/10/11 00:00:24;;;;;;;5.35;2.00;;;;;;;13.95;80.86;99760.31;338137;28;4755;-65
2023/10/11 00:00:47;;;;;;;4.57;1.90;;;;;;;13.94;80.79;99759.47;338294;28;5181;-77
2023/10/11 00:00:59;;;;;;;4.13;1.90;;;;;;;13.93;80.98;99755.16;338397;28;5528;-77
2023/10/11 00:01:11;;;;;;;5.05;1.88;;;;;;;13.93;80.70;99759.53;335616;28;17712;-77
2023/10/11 00:01:23;;;;;;;5.35;1.98;;;;;;;13.90;80.48;99757.88;338944;28;5267;-77
2023/10/11 00:01:35;;;;;;;4.10;1.85;;;;;;;13.87;80.51;99760.66;337936;28;5244;-77
2023/10/11 00:01:47;;;;;;;4.50;1.83;;;;;;;13.87;80.46;99763.28;330899;28;17423;-77
2023/10/11 00:02:00;;;;;;;6.82;1.73;;;;;;;13.90;80.40;99760.50;338528;28;5778;-77
2023/10/11 00:02:14;;;;;;;6.43;1.90;;;;;;;13.92;80.29;99756.09;335677;28;18680;-77
2023/10/11 00:02:29;;;;;;;3.28;1.75;;;;;;;13.93;80.19;99763.00;335985;28;17751;-77
2023/10/11 00:02:44;;;;;;;2.92;1.55;;;;;;;13.96;79.99;99762.88;337047;28;9892;-77
2023/10/11 00:02:56;;;;;;;2.25;1.23;;;;;;;13.97;79.89;99754.09;336597;28;10117;-76
2023/10/11 00:03:32;;;;;;;7.70;1.55;;;;;;;13.97;79.62;99767.16;340445;28;5905;-77
2023/10/11 00:03:54;;;;;;;4.90;1.50;;;;;;;13.99;79.79;99760.09;337208;28;17407;-77
2023/10/11 00:04:23;;;;;;;3.15;1.50;;;;;;;13.99;80.23;99757.50;338799;28;17287;-77
2023/10/11 00:04:36;;;;;;;4.82;1.50;;;;;;;13.97;81.06;99756.72;335554;28;17750;-77
2023/10/11 00:04:48;;;;;;;6.47;1.70;;;;;;;13.99;80.79;99767.94;332302;28;19038;-77
2023/10/11 00:05:03;;;;;;;6.63;1.95;;;;;;;13.98;81.00;99761.03;338722;28;8460;-77
2023/10/11 00:05:17;;;;;;;5.63;1.77;;;;;;;14.01;80.57;99764.44;337802;28;17936;-77
2023/10/11 00:05:36;;;;;;;5.93;1.73;;;;;;;14.03;80.38;99762.59;337081;28;18910;-77
2023/10/11 00:05:48;;;;;;;3.13;1.70;;;;;;;14.04;80.16;99757.28;337015;28;17870;-77
2023/10/11 00:06:04;;;;;;;2.92;1.70;;;;;;;14.07;79.99;99761.53;339779;28;4564;-77
2023/10/11 00:06:17;;;;;;;4.00;1.83;;;;;;;14.07;80.11;99764.16;338102;28;17846;-77
2023/10/11 00:06:33;;;;;;;5.68;1.80;;;;;;;14.07;79.94;99767.59;336022;28;19001;-77
2023/10/11 00:06:49;;;;;;;4.68;1.67;;;;;;;14.07;80.09;99764.16;337110;28;18303;-77
2023/10/11 00:07:01;;;;;;;7.65;1.63;;;;;;;14.08;80.29;99760.59;336745;28;17773;-77
2023/10/11 00:07:13;;;;;;;7.75;1.60;;;;;;;14.10;80.26;99761.38;337219;28;13288;-77
2023/10/11 00:07:25;;;;;;;5.18;1.63;;;;;;;14.10;80.35;99761.38;340449;28;4634;-76
2023/10/11 00:07:37;;;;;;;3.83;1.77;;;;;;;14.07;80.57;99761.53;340079;28;4705;-77
2023/10/11 00:07:54;;;;;;;5.63;2.08;;;;;;;14.09;80.52;99763.16;337030;28;11479;-77
2023/10/11 00:08:08;;;;;;;4.88;1.90;;;;;;;14.07;80.64;99759.75;336936;28;17755;-77
2023/10/11 00:08:26;;;;;;;6.07;2.20;;;;;;;14.07;80.54;99764.16;336303;28;18080;-77
2023/10/11 00:08:40;;;;;;;10.60;2.22;;;;;;;14.06;80.97;99767.66;337197;28;17524;-77
2023/10/11 00:08:53;;;;;;;8.80;1.75;;;;;;;14.03;80.89;99758.22;339661;28;5402;-77
2023/10/11 00:09:12;;;;;;;9.38;1.88;;;;;;;14.08;80.92;99760.59;337890;28;17874;-77
2023/10/11 00:09:34;;;;;;;5.60;1.85;;;;;;;14.08;80.77;99760.59;335354;28;19297;-77
2023/10/11 00:09:51;;;;;;;3.58;1.75;;;;;;;14.12;80.54;99759.53;337290;28;17499;-77
2023/10/11 00:10:10;;;;;;;3.55;1.60;;;;;;;14.15;80.19;99762.03;337857;28;17935;-77
2023/10/11 00:10:23;;;;;;;2.50;1.33;;;;;;;14.17;80.16;99760.19;337210;28;16638;-77
2023/10/11 00:10:42;;;;;;;3.00;1.50;;;;;;;14.18;79.88;99767.97;334996;28;19219;-77
2023/10/11 00:10:59;;;;;;;4.07;1.67;;;;;;;14.18;80.08;99760.13;331171;28;17666;-77
2023/10/11 00:11:18;;;;;;;5.50;1.90;;;;;;;14.18;80.18;99756.66;336337;28;18708;-77
2023/10/11 00:11:30;;;;;;;4.88;2.03;;;;;;;14.20;80.32;99760.03;337399;28;17258;-77
2023/10/11 00:11:42;;;;;;;6.75;2.10;;;;;;;14.17;80.34;99760.19;339884;28;5256;-77
2023/10/11 00:11:56;;;;;;;7.10;1.98;;;;;;;14.19;80.51;99758.34;340602;28;5897;-77
2023/10/11 00:12:11;;;;;;;5.90;1.55;;;;;;;14.20;80.21;99762.66;336222;28;17844;-77
2023/10/11 00:12:24;;;;;;;5.75;1.60;;;;;;;14.19;80.40;99760.97;337834;28;17976;-77
2023/10/11 00:12:41;;;;;;;4.93;1.63;;;;;;;14.20;80.08;99757.44;336073;28;17899;-77
2023/10/11 00:12:58;;;;;;;3.45;1.58;;;;;;;14.24;79.76;99760.75;337999;28;17742;-77
2023/10/11 00:13:15;;;;;;;5.40;1.60;;;;;;;14.27;79.36;99764.09;336169;28;18928;-77
2023/10/11 00:13:35;;;;;;;4.32;1.40;;;;;;;14.29;78.85;99770.09;336364;28;17889;-77
2023/10/11 00:13:48;;;;;;;4.45;1.50;;;;;;;14.28;78.92;99757.09;332801;28;17744;-77
2023/10/11 00:14:00;;;;;;;4.78;1.55;;;;;;;14.25;78.84;99758.06;340299;28;5136;-77
2023/10/11 00:14:13;;;;;;;4.47;1.35;;;;;;;14.24;78.75;99761.59;335610;28;18335;-77
2023/10/11 00:14:25;;;;;;;4.97;1.45;;;;;;;14.22;78.89;99766.03;339865;28;4715;-77
2023/10/11 00:14:42;;;;;;;4.65;1.48;;;;;;;14.21;78.95;99756.53;336096;28;18968;-77
2023/10/11 00:14:57;;;;;;;3.50;1.50;;;;;;;14.22;78.70;99758.19;335702;28;17897;-77
2023/10/11 00:15:09;;;;;;;4.90;1.70;;;;;;;14.18;78.88;99756.66;336208;28;18009;-77
2023/10/11 00:15:24;;;;;;;5.82;1.67;;;;;;;14.16;78.99;99759.31;338302;28;5688;-76
2023/10/11 00:15:36;;;;;;;7.90;1.80;;;;;;;14.16;79.09;99763.72;336503;28;18217;-76
2023/10/11 00:15:50;;;;;;;7.55;1.80;;;;;;;14.13;79.20;99763.88;333776;28;18398;-76
2023/10/11 00:16:07;;;;;;;7.93;1.85;;;;;;;14.13;79.15;99758.63;336897;28;12182;-76
2023/10/11 00:16:21;;;;;;;4.22;1.80;;;;;;;14.10;79.24;99753.53;333257;28;18362;-76
2023/10/11 00:16:35;;;;;;;2.97;1.73;;;;;;;14.10;79.19;99762.22;337603;28;18251;-76
2023/10/11 00:16:53;;;;;;;2.95;1.50;;;;;;;14.11;79.32;99763.09;339805;28;14041;-76
2023/10/11 00:17:09;;;;;;;3.38;1.42;;;;;;;14.07;79.51;99757.16;332101;28;17814;-76
2023/10/11 00:17:21;;;;;;;3.53;1.60;;;;;;;14.05;79.63;99758.16;336030;28;18438;-76
2023/10/11 00:17:33;;;;;;;3.92;1.90;;;;;;;14.04;79.84;99764.28;336200;28;11853;-76
2023/10/11 00:17:46;;;;;;;4.95;2.33;;;;;;;14.02;79.92;99760.88;337837;28;4671;-76
2023/10/11 00:17:58;;;;;;;5.53;2.35;;;;;;;14.02;80.12;99760.88;336587;28;12172;-76
2023/10/11 00:18:10;;;;;;;5.45;2.30;;;;;;;13.96;80.23;99754.16;339612;28;5289;-76
2023/10/11 00:18:28;;;;;;;5.40;1.80;;;;;;;13.97;80.28;99759.31;340342;28;6197;-76
2023/10/11 00:18:41;;;;;;;4.05;1.67;;;;;;;13.98;80.08;99763.66;331312;28;17950;-76
2023/10/11 00:18:55;;;;;;;5.28;1.70;;;;;;;13.97;80.10;99761.09;336301;28;18215;-76
2023/10/11 00:19:09;;;;;;;6.60;1.83;;;;;;;13.96;80.17;99757.66;338697;28;4715;-76
2023/10/11 00:19:25;;;;;;;4.50;1.73;;;;;;;13.96;80.57;99752.41;336527;28;18144;-76
2023/10/11 00:19:39;;;;;;;4.32;1.50;;;;;;;13.94;80.64;99759.47;338292;28;17989;-76
2023/10/11 00:19:52;;;;;;;4.03;1.40;;;;;;;13.94;80.64;99749.03;337380;28;18177;-76
2023/10/11 00:20:28;;;;;;;2.88;1.30;;;;;;;13.94;80.59;99759.47;336418;28;5461;-76
2023/10/11 00:20:56;;;;;;;2.65;1.52;;;;;;;13.96;80.55;99762.88;341886;28;5118;-76
2023/10/11 00:21:10;;;;;;;4.97;1.27;;;;;;;13.98;80.42;99760.16;340250;28;17592;-76
2023/10/11 00:21:35;;;;;;;7.32;1.63;;;;;;;13.99;80.30;99760.09;336975;28;18200;-76
2023/10/11 00:21:49;;;;;;;4.07;1.50;;;;;;;13.97;80.21;99748.88;338158;28;20174;-76
2023/10/11 00:22:01;;;;;;;3.08;1.73;;;;;;;13.99;80.66;99752.25;336495;28;17874;-76
2023/10/11 00:22:17;;;;;;;2.72;1.48;;;;;;;14.01;80.55;99753.97;336487;28;17966;-76
2023/10/11 00:22:32;;;;;;;5.22;1.42;;;;;;;14.03;80.62;99752.13;339015;28;4674;-76
2023/10/11 00:22:45;;;;;;;5.90;1.70;;;;;;;14.03;80.79;99749.53;338816;28;16089;-76
2023/10/11 00:22:59;;;;;;;4.55;1.88;;;;;;;14.04;80.92;99759.03;335570;28;18018;-76
2023/10/11 00:23:11;;;;;;;5.18;1.80;;;;;;;14.02;80.96;99755.66;331739;28;12713;-76
2023/10/11 00:23:25;;;;;;;5.57;1.65;;;;;;;14.02;81.31;99753.88;339011;28;4540;-76
2023/10/11 00:23:50;;;;;;;4.60;1.47;;;;;;;14.03;81.14;99758.22;336583;28;18541;-76
2023/10/11 00:24:03;;;;;;;4.75;1.60;;;;;;;14.03;81.19;99758.22;338663;28;17432;-76
2023/10/11 00:24:17;;;;;;;4.93;1.67;;;;;;;14.07;80.88;99753.69;341289;28;4715;-76
2023/10/11 00:24:29;;;;;;;5.28;1.60;;;;;;;14.09;80.63;99751.84;336535;28;17995;-76
2023/10/11 00:24:41;;;;;;;6.13;1.65;;;;;;;14.10;80.36;99757.00;339527;28;4666;-76
2023/10/11 00:24:53;;;;;;;6.53;1.67;;;;;;;14.12;80.23;99755.16;336610;28;13330;-76
2023/10/11 00:25:05;;;;;;;6.03;1.60;;;;;;;14.15;80.07;99756.81;340136;28;5513;-76
2023/10/11 00:25:23;;;;;;;5.40;1.45;;;;;;;14.15;79.82;99755.03;336746;28;18048;-76
2023/10/11 00:25:35;;;;;;;3.95;1.48;;;;;;;14.16;79.92;99753.25;337433;28;17513;-76
2023/10/11 00:25:50;;;;;;;5.68;1.85;;;;;;;14.16;80.14;99755.88;335822;28;17348;-76
2023/10/11 00:26:02;;;;;;;5.63;2.00;;;;;;;14.14;80.04;99750.72;339212;28;17524;-76
2023/10/11 00:26:14;;;;;;;5.72;2.08;;;;;;;14.16;80.11;99753.25;337041;28;19309;-76
2023/10/11 00:26:27;;;;;;;4.75;1.70;;;;;;;14.16;80.18;99756.72;336929;28;11409;-76
2023/10/11 00:26:40;;;;;;;5.22;1.65;;;;;;;14.16;80.39;99753.25;339742;28;5368;-76
2023/10/11 00:26:53;;;;;;;5.50;1.70;;;;;;;14.15;80.29;99751.56;337483;28;18139;-76
2023/10/11 00:27:05;;;;;;;5.47;1.60;;;;;;;14.15;80.21;99751.56;340346;28;5139;-76
2023/10/11 00:27:17;;;;;;;3.55;1.50;;;;;;;14.17;79.95;99750.59;338031;28;11828;-76
2023/10/11 00:27:29;;;;;;;4.13;1.75;;;;;;;14.19;79.86;99750.53;338728;28;19107;-76
2023/10/11 00:27:42;;;;;;;3.38;1.70;;;;;;;14.18;80.03;99754.03;335940;28;4590;-76
2023/10/11 00:27:58;;;;;;;3.20;1.65;;;;;;;14.18;80.11;99749.69;337008;28;18198;-76
2023/10/11 00:28:11;;;;;;;4.55;1.90;;;;;;;14.17;79.95;99749.75;337853;28;18051;-76
2023/10/11 00:28:24;;;;;;;4.50;1.60;;;;;;;14.17;80.30;99757.59;336834;28;10871;-76
2023/10/11 00:28:38;;;;;;;3.50;1.38;;;;;;;14.18;80.00;99751.41;339410;28;5469;-76
2023/10/11 00:28:50;;;;;;;3.88;1.52;;;;;;;14.20;79.94;99754.81;337551;28;18307;-76
2023/10/11 00:29:04;;;;;;;2.38;1.40;;;;;;;14.21;79.64;99753.91;340394;28;4530;-76
2023/10/11 00:29:16;;;;;;;3.90;1.50;;;;;;;14.22;79.43;99747.75;333619;28;18644;-76
2023/10/11 00:29:29;;;;;;;4.00;1.75;;;;;;;14.22;79.19;99755.59;338372;28;5449;-76
2023/10/11 00:29:41;;;;;;;3.80;1.67;;;;;;;14.20;79.12;99760.03;338112;28;17461;-76
2023/10/11 00:29:53;;;;;;;3.70;1.67;;;;;;;14.19;79.05;99753.97;340011;28;5246;-76
2023/10/11 00:30:06;;;;;;;3.63;1.50;;;;;;;14.19;79.19;99753.13;337231;28;17870;-76
2023/10/11 00:30:19;;;;;;;2.90;1.50;;;;;;;14.19;78.99;99748.75;339730;28;4648;-76
2023/10/11 00:30:36;;;;;;;4.13;1.75;;;;;;;14.20;78.95;99752.19;336939;28;15109;-76
2023/10/11 00:30:51;;;;;;;5.88;1.80;;;;;;;14.18;78.91;99754.03;336796;28;17929;-76
2023/10/11 00:31:04;;;;;;;6.30;1.63;;;;;;;14.13;78.85;99756.03;337565;28;17840;-76
2023/10/11 00:31:19;;;;;;;4.55;1.50;;;;;;;14.09;79.28;99754.47;334872;28;18349;-76
2023/10/11 00:31:35;;;;;;;5.55;1.85;;;;;;;14.09;79.19;99757.09;336855;28;18077;-76
2023/10/11 00:31:51;;;;;;;5.07;1.70;;;;;;;14.11;79.15;99755.25;337285;28;16976;-76
2023/10/11 00:32:04;;;;;;;2.97;1.20;;;;;;;14.12;79.34;99751.69;334945;28;17655;-76
2023/10/11 00:32:16;;;;;;;3.78;1.38;;;;;;;14.10;79.41;99753.53;333121;28;19551;-76
2023/10/11 00:32:29;;;;;;;4.93;1.60;;;;;;;14.08;79.34;99750.16;340609;28;4539;-76
2023/10/11 00:32:41;;;;;;;5.35;1.70;;;;;;;14.07;79.22;99749.31;337694;28;18246;-76
2023/10/11 00:32:54;;;;;;;6.40;1.60;;;;;;;14.08;79.21;99752.75;339357;28;5245;-76
2023/10/11 00:33:10;;;;;;;5.05;1.40;;;;;;;14.05;79.23;99750.31;337382;28;18288;-76
2023/10/11 00:33:29;;;;;;;2.97;1.70;;;;;;;14.02;80.27;99753.88;335606;28;17354;-76
2023/10/11 00:33:51;;;;;;;5.45;1.73;;;;;;;14.03;79.80;99749.53;331312;28;17718;-76
2023/10/11 00:34:03;;;;;;;6.07;1.70;;;;;;;14.01;79.64;99760.03;336577;28;17754;-76
2023/10/11 00:34:16;;;;;;;4.47;1.70;;;;;;;14.02;79.66;99755.66;338819;28;4952;-76
2023/10/11 00:34:28;;;;;;;5.30;1.90;;;;;;;14.02;79.73;99748.66;340077;28;4644;-76
2023/10/11 00:34:40;;;;;;;4.88;1.92;;;;;;;14.03;79.89;99757.38;338832;28;4922;-77
2023/10/11 00:34:54;;;;;;;2.70;1.65;;;;;;;14.05;79.66;99755.53;337514;28;18226;-77
2023/10/11 00:35:07;;;;;;;3.10;1.35;;;;;;;14.05;79.43;99750.31;341463;28;4601;-77
2023/10/11 00:35:19;;;;;;;3.80;1.40;;;;;;;14.08;79.48;99750.16;337259;28;18354;-76
2023/10/11 00:35:32;;;;;;;4.40;1.50;;;;;;;14.10;79.28;99748.31;339256;28;4943;-76
2023/10/11 00:35:49;;;;;;;3.80;1.45;;;;;;;14.08;79.12;99755.38;336944;28;19385;-76
2023/10/11 00:36:02;;;;;;;2.30;1.45;;;;;;;14.07;79.18;99754.53;337049;28;18060;-76
2023/10/11 00:36:15;;;;;;;2.67;1.67;;;;;;;14.10;78.99;99753.53;334437;28;18181;-76
2023/10/11 00:36:31;;;;;;;3.50;1.75;;;;;;;14.08;79.15;99750.16;331748;28;12074;-76
2023/10/11 00:36:45;;;;;;;2.85;1.48;;;;;;;14.05;79.21;99745.06;335731;28;18235;-76
2023/10/11 00:36:58;;;;;;;2.00;1.30;;;;;;;14.05;79.22;99756.38;338913;28;4605;-76
2023/10/11 00:37:10;;;;;;;2.50;1.38;;;;;;;14.00;79.02;99755.72;336485;28;17916;-76
2023/10/11 00:37:22;;;;;;;2.60;1.58;;;;;;;14.01;79.34;99751.34;341331;28;4567;-76
2023/10/11 00:37:38;;;;;;;2.33;1.50;;;;;;;13.97;79.46;99748.88;337752;28;18054;-76
2023/10/11 00:37:52;;;;;;;1.98;1.23;;;;;;;13.96;79.71;99749.81;336072;28;17646;-76
2023/10/11 00:38:05;;;;;;;3.88;1.70;;;;;;;13.97;79.52;99754.09;337231;28;18096;-76
2023/10/11 00:38:18;;;;;;;4.85;1.75;;;;;;;13.99;79.48;99752.25;338718;28;4582;-76
2023/10/11 00:38:31;;;;;;;4.18;1.50;;;;;;;14.01;79.37;99753.97;337120;28;17724;-76
2023/10/11 00:38:46;;;;;;;3.53;1.58;;;;;;;14.02;79.20;99750.44;334669;28;4890;-76
2023/10/11 00:38:58;;;;;;;2.90;1.40;;;;;;;14.05;79.13;99755.53;336142;28;17786;-76
2023/10/11 00:39:17;;;;;;;4.72;1.40;;;;;;;14.00;79.33;99753.09;337674;28;17892;-76
2023/10/11 00:39:33;;;;;;;4.68;1.40;;;;;;;14.03;79.04;99746.91;337225;28;17637;-76
2023/10/11 00:39:45;;;;;;;2.85;1.40;;;;;;;14.02;79.26;99748.66;337137;28;11059;-76
2023/10/11 00:39:57;;;;;;;3.30;1.30;;;;;;;14.01;79.16;99751.34;339652;28;4662;-76
2023/10/11 00:40:13;;;;;;;6.38;1.55;;;;;;;14.02;79.03;99750.44;340245;28;4642;-76
2023/10/11 00:40:27;;;;;;;6.30;1.70;;;;;;;13.96;79.21;99746.31;337202;28;18553;-76
2023/10/11 00:40:43;;;;;;;3.10;1.63;;;;;;;13.97;79.06;99748.88;339970;28;4549;-76
2023/10/11 00:41:18;;;;;;;3.75;1.77;;;;;;;13.93;79.38;99747.31;338660;28;18017;-76
2023/10/11 00:41:39;;;;;;;3.88;1.80;;;;;;;13.95;79.37;99749.88;332989;28;17271;-76
2023/10/11 00:41:53;;;;;;;2.80;1.77;;;;;;;13.93;79.48;99746.47;337204;28;17494;-76
2023/10/11 00:42:05;;;;;;;3.80;1.67;;;;;;;13.90;79.44;99744.81;337541;28;16076;-76
2023/10/11 00:42:18;;;;;;;5.95;1.63;;;;;;;13.86;79.58;99745.88;339810;28;5262;-76
2023/10/11 00:42:32;;;;;;;7.05;1.85;;;;;;;13.88;79.47;99746.66;337656;28;18718;-76
2023/10/11 00:42:44;;;;;;;4.25;1.65;;;;;;;13.89;79.49;99743.16;340689;28;4554;-76
2023/10/11 00:42:56;;;;;;;5.93;1.65;;;;;;;13.89;79.23;99750.97;339389;28;5395;-76
2023/10/11 00:43:13;;;;;;;7.05;1.60;;;;;;;13.93;79.24;99752.53;335664;28;17391;-76
2023/10/11 00:43:35;;;;;;;5.07;1.42;;;;;;;13.94;79.24;99742.94;337085;28;17830;-76
2023/10/11 00:43:55;;;;;;;3.45;1.80;;;;;;;13.93;79.16;99742.09;336977;28;16428;-76
2023/10/11 00:44:07;;;;;;;3.63;1.95;;;;;;;13.91;79.50;99743.91;336062;28;17895;-76
2023/10/11 00:44:21;;;;;;;7.10;1.85;;;;;;;13.93;79.39;99747.31;339081;28;4531;-76
2023/10/11 00:44:33;;;;;;;6.35;1.48;;;;;;;13.91;79.47;99749.16;331445;28;19495;-76
2023/10/11 00:44:47;;;;;;;3.25;1.40;;;;;;;13.92;79.49;99745.63;339364;28;5262;-76
2023/10/11 00:45:02;;;;;;;4.35;1.60;;;;;;;13.90;79.46;99742.22;335262;28;18363;-76
2023/10/11 00:45:16;;;;;;;4.45;1.70;;;;;;;13.90;79.94;99747.44;337776;28;18042;-76
2023/10/11 00:45:36;;;;;;;4.90;1.88;;;;;;;13.92;79.74;99740.41;337280;28;18988;-76
2023/10/11 00:45:48;;;;;;;4.63;1.95;;;;;;;13.92;79.89;99745.63;336327;28;17535;-76
2023/10/11 00:46:03;;;;;;;3.75;2.10;;;;;;;13.93;79.71;99742.09;340081;28;5475;-76
2023/10/11 00:46:19;;;;;;;4.53;2.13;;;;;;;13.93;80.57;99741.25;337172;28;17738;-76
2023/10/11 00:46:50;;;;;;;4.60;1.88;;;;;;;13.94;80.02;99743.78;337385;28;4570;-76
2023/10/11 00:47:06;;;;;;;5.22;2.08;;;;;;;13.95;79.69;99744.63;336337;28;17400;-76
2023/10/11 00:47:18;;;;;;;4.18;2.00;;;;;;;13.97;79.53;99738.41;337310;28;17921;-76
2023/10/11 00:47:30;;;;;;;3.58;1.90;;;;;;;13.97;79.82;99738.41;340386;28;4697;-76
2023/10/11 00:47:45;;;;;;;3.97;1.85;;;;;;;13.97;79.79;99738.41;335396;28;4655;-76
2023/10/11 00:47:59;;;;;;;3.58;1.70;;;;;;;13.96;80.46;99746.31;339191;28;17889;-76
2023/10/11 00:48:13;;;;;;;4.30;1.88;;;;;;;13.97;80.32;99748.88;338208;28;18707;-76
2023/10/11 00:48:26;;;;;;;5.18;1.77;;;;;;;13.95;80.09;99740.25;337312;28;18772;-76
2023/10/11 00:48:51;;;;;;;4.70;2.05;;;;;;;13.97;80.25;99746.25;337251;28;11774;-76
2023/10/11 00:49:11;;;;;;;3.97;2.15;;;;;;;13.98;80.08;99740.13;338425;28;17531;-76
2023/10/11 00:49:34;;;;;;;4.97;1.88;;;;;;;14.01;80.01;99738.28;332914;28;17709;-76
2023/10/11 00:49:50;;;;;;;4.55;1.70;;;;;;;13.97;80.13;99740.19;337078;28;17324;-76
2023/10/11 00:50:03;;;;;;;3.58;1.48;;;;;;;13.94;80.33;99742.94;335633;28;18028;-76
2023/10/11 00:50:15;;;;;;;4.45;1.67;;;;;;;13.96;79.92;99739.34;336051;28;17643;-76
2023/10/11 00:50:30;;;;;;;4.40;1.80;;;;;;;13.94;80.28;99743.78;339105;28;5892;-76
2023/10/11 00:50:43;;;;;;;3.65;1.50;;;;;;;13.92;80.32;99748.25;337455;28;17900;-76
2023/10/11 00:50:56;;;;;;;2.67;1.30;;;;;;;13.94;80.47;99741.19;333050;28;10135;-76
2023/10/11 00:51:10;;;;;;;4.00;1.65;;;;;;;13.95;80.12;99745.47;341398;28;4544;-76
2023/10/11 00:51:30;;;;;;;4.68;1.85;;;;;;;13.95;80.28;99740.25;338015;28;18106;-76
2023/10/11 00:51:46;;;;;;;3.15;1.75;;;;;;;13.97;80.53;99743.66;337359;28;17534;-76
2023/10/11 00:51:58;;;;;;;3.13;1.70;;;;;;;13.96;80.76;99741.09;336304;28;19103;-76
2023/10/11 00:52:13;;;;;;;3.67;1.67;;;;;;;13.97;80.50;99738.41;338654;28;18112;-76
2023/10/11 00:52:25;;;;;;;3.80;1.75;;;;;;;13.98;80.27;99745.34;335684;28;19008;-76
2023/10/11 00:52:37;;;;;;;4.20;1.88;;;;;;;13.97;80.50;99743.66;338082;28;6198;-77
2023/10/11 00:52:51;;;;;;;4.50;1.90;;;;;;;13.94;80.15;99743.78;339670;28;4513;-77
2023/10/11 00:53:04;;;;;;;3.13;1.65;;;;;;;13.95;80.46;99744.63;337029;28;19023;-77
2023/10/11 00:53:18;;;;;;;2.97;1.52;;;;;;;13.96;80.05;99751.53;336537;28;18874;-77
2023/10/11 00:53:34;;;;;;;3.22;1.40;;;;;;;13.97;80.08;99748.88;339851;28;4710;-77
2023/10/11 00:53:47;;;;;;;3.80;1.60;;;;;;;13.96;79.84;99747.19;337151;28;17678;-77
2023/10/11 00:54:03;;;;;;;4.28;1.80;;;;;;;13.97;79.92;99743.66;333868;28;17167;-77
2023/10/11 00:54:16;;;;;;;4.22;1.67;;;;;;;14.01;79.69;99740.91;334860;28;17986;-77
2023/10/11 00:54:29;;;;;;;4.35;1.90;;;;;;;14.01;79.60;99738.28;335764;28;17807;-77
2023/10/11 00:54:43;;;;;;;3.45;1.90;;;;;;;14.02;79.63;99742.59;337253;28;11960;-77
2023/10/11 00:54:55;;;;;;;3.05;1.58;;;;;;;14.00;79.71;99753.09;340750;28;4654;-77
2023/10/11 00:55:13;;;;;;;4.20;1.95;;;;;;;13.99;79.74;99741.81;338420;28;18292;-77
2023/10/11 00:55:29;;;;;;;11.50;2.33;;;;;;;14.02;79.50;99745.19;332273;28;17645;-77
2023/10/11 00:55:41;;;;;;;11.48;1.90;;;;;;;14.01;79.31;99748.75;337150;28;17970;-77
2023/10/11 00:55:57;;;;;;;6.40;1.77;;;;;;;14.00;79.46;99742.66;336088;28;17780;-77
2023/10/11 00:56:09;;;;;;;4.65;2.03;;;;;;;13.99;79.36;99746.19;336932;28;18065;-77
2023/10/11 00:56:21;;;;;;;5.15;1.90;;;;;;;13.99;79.38;99752.25;339236;28;4548;-77
2023/10/11 00:56:34;;;;;;;4.23;1.63;;;;;;;13.99;79.49;99741.81;336150;28;18245;-76
2023/10/11 00:56:49;;;;;;;4.35;1.67;;;;;;;14.00;79.57;99747.88;339694;28;5186;-76
2023/10/11 00:57:02;;;;;;;4.20;1.45;;;;;;;14.01;79.73;99740.91;330805;28;17643;-76
2023/10/11 00:57:15;;;;;;;4.88;1.40;;;;;;;14.01;79.78;99746.13;335870;28;18238;-76
2023/10/11 00:57:28;;;;;;;6.05;1.50;;;;;;;14.01;79.65;99739.13;338737;28;6691;-76
2023/10/11 00:57:40;;;;;;;5.45;1.35;;;;;;;13.99;79.59;99746.19;335609;28;17672;-76
2023/10/11 00:57:53;;;;;;;7.60;1.40;;;;;;;14.01;79.37;99749.59;339090;28;4649;-76
2023/10/11 00:58:06;;;;;;;6.88;1.50;;;;;;;14.01;79.26;99743.53;336197;28;17912;-76
2023/10/11 00:58:18;;;;;;;3.42;1.63;;;;;;;14.02;79.23;99745.19;339370;28;5489;-76
2023/10/11 00:58:30;;;;;;;3.70;1.83;;;;;;;14.02;79.05;99751.28;335626;28;18089;-76
2023/10/11 00:58:43;;;;;;;3.70;1.77;;;;;;;14.04;79.07;99743.38;334856;28;5583;-76
2023/10/11 00:58:55;;;;;;;4.05;1.77;;;;;;;14.04;79.38;99743.38;338514;28;17896;-76
2023/10/11 00:59:12;;;;;;;5.25;2.03;;;;;;;14.04;79.05;99743.38;341238;28;4553;-76
2023/10/11 00:59:27;;;;;;;7.18;2.13;;;;;;;14.03;78.83;99758.22;337218;28;17594;-76
2023/10/11 00:59:40;;;;;;;5.32;1.77;;;;;;;14.04;78.88;99745.97;336789;28;18196;-76
2023/10/11 00:59:52;;;;;;;5.68;1.45;;;;;;;14.03;79.08;99749.53;340574;28;4493;-76
2023/10/11 01:00:04;;;;;;;5.53;1.30;;;;;;;13.99;79.71;99747.03;340184;28;5483;-76
2023/10/11 01:00:21;;;;;;;4.72;1.45;;;;;;;14.00;79.80;99747.88;332943;28;18129;-76
2023/10/11 01:00:36;;;;;;;6.38;1.85;;;;;;;14.00;79.57;99753.09;337162;28;18001;-76
2023/10/11 01:00:49;;;;;;;6.20;1.85;;;;;;;14.01;79.22;99748.75;335100;28;17958;-76
2023/10/11 01:01:02;;;;;;;4.25;1.65;;;;;;;14.01;79.02;99748.75;335272;28;17838;-76
2023/10/11 01:01:15;;;;;;;4.65;1.67;;;;;;;13.99;78.94;99746.19;338513;28;5272;-76
2023/10/11 01:01:27;;;;;;;3.75;1.33;;;;;;;13.97;79.37;99748.88;335573;28;18316;-76
2023/10/11 01:01:40;;;;;;;3.88;1.40;;;;;;;13.97;79.33;99742.81;333771;28;5753;-76
2023/10/11 01:01:52;;;;;;;4.30;1.60;;;;;;;13.96;79.27;99749.81;335069;28;17920;-76
2023/10/11 01:02:06;;;;;;;4.25;1.73;;;;;;;13.95;79.60;99745.47;337764;28;4638;-76
2023/10/11 01:02:18;;;;;;;3.28;1.50;;;;;;;13.91;80.33;99743.09;334552;28;17763;-76
2023/10/11 01:02:32;;;;;;;3.80;1.70;;;;;;;13.90;80.08;99751.81;335558;28;18150;-76
2023/10/11 01:02:47;;;;;;;6.55;1.80;;;;;;;13.89;80.00;99744.91;337469;28;5624;-76
2023/10/11 01:02:59;;;;;;;7.32;2.15;;;;;;;13.89;79.83;99745.75;334622;28;18127;-76
2023/10/11 01:03:11;;;;;;;4.68;2.03;;;;;;;13.91;79.70;99751.75;330031;28;6133;-76
2023/10/11 01:03:23;;;;;;;3.63;1.65;;;;;;;13.92;79.77;99750.88;337847;28;4684;-76
2023/10/11 01:03:37;;;;;;;2.60;1.40;;;;;;;13.88;80.06;99737.97;333540;28;11785;-76
2023/10/11 01:03:51;;;;;;;2.33;1.50;;;;;;;13.90;80.10;99743.97;337234;28;5421;-76
2023/10/11 01:04:06;;;;;;;2.33;1.60;;;;;;;13.91;79.88;99750.91;330984;28;19016;-76
2023/10/11 01:04:19;;;;;;;2.88;1.85;;;;;;;13.89;80.16;99745.75;334591;28;18311;-76
2023/10/11 01:04:37;;;;;;;4.00;1.87;;;;;;;13.90;79.71;99744.81;336996;28;17724;-76
2023/10/11 01:04:49;;;;;;;6.85;2.10;;;;;;;13.86;80.05;99743.25;332578;28;17882;-76
2023/10/11 01:05:01;;;;;;;5.75;2.10;;;;;;;13.83;79.87;99745.19;336591;28;4682;-76
2023/10/11 01:05:14;;;;;;;4.03;1.58;;;;;;;13.82;79.68;99749.53;336056;28;5414;-76
2023/10/11 01:05:26;;;;;;;5.30;1.63;;;;;;;13.83;79.95;99746.03;334417;28;18088;-76
2023/10/11 01:05:43;;;;;;;4.38;1.70;;;;;;;13.84;79.94;99746.88;337499;28;9773;-76
2023/10/11 01:05:55;;;;;;;3.13;1.95;;;;;;;13.82;80.54;99744.31;330947;28;17753;-76
2023/10/11 01:06:12;;;;;;;3.58;2.08;;;;;;;13.80;80.46;99740.94;338631;28;6052;-76
2023/10/11 01:06:25;;;;;;;3.35;1.65;;;;;;;13.79;80.19;99745.31;336915;28;18928;-76
2023/10/11 01:06:38;;;;;;;3.30;1.40;;;;;;;13.79;80.36;99745.31;338013;28;17988;-76
2023/10/11 01:06:50;;;;;;;2.95;1.55;;;;;;;13.80;80.51;99746.16;337860;28;4622;-76
2023/10/11 01:07:02;;;;;;;3.40;1.50;;;;;;;13.80;80.46;99743.53;336351;28;17975;-76
2023/10/11 01:07:14;;;;;;;3.17;1.60;;;;;;;13.80;80.82;99746.16;338653;28;4687;-76
2023/10/11 01:07:26;;;;;;;3.63;1.87;;;;;;;13.76;81.03;99747.19;336624;28;4858;-76
2023/10/11 01:07:41;;;;;;;2.80;1.77;;;;;;;13.75;80.87;99742.91;338742;28;4614;-76
2023/10/11 01:07:54;;;;;;;3.47;1.58;;;;;;;13.76;80.83;99742.84;336327;28;17806;-76
2023/10/11 01:08:06;;;;;;;3.33;1.58;;;;;;;13.80;80.68;99746.16;336014;28;18779;-76
2023/10/11 01:08:20;;;;;;;3.40;1.63;;;;;;;13.78;80.88;99742.75;337477;28;4655;-76
2023/10/11 01:08:38;;;;;;;3.85;1.80;;;;;;;13.77;80.96;99743.69;335146;28;17894;-76
2023/10/11 01:08:52;;;;;;;2.78;1.38;;;;;;;13.75;80.68;99742.91;335407;28;17879;-76
2023/10/11 01:09:15;;;;;;;3.97;1.58;;;;;;;13.75;80.79;99742.91;338860;28;4672;-76
2023/10/11 01:09:29;;;;;;;4.32;2.13;;;;;;;13.75;80.86;99745.53;335842;28;17129;-76
2023/10/11 01:09:41;;;;;;;2.90;1.80;;;;;;;13.77;80.59;99743.69;337026;28;5047;-76
2023/10/11 01:09:53;;;;;;;3.92;1.58;;;;;;;13.76;80.38;99744.59;332213;28;17930;-77
2023/10/11 01:10:08;;;;;;;4.75;1.55;;;;;;;13.76;80.40;99748.06;338779;28;5519;-77